sensor_id;sensor_type;location;lat;lon;timestamp;pressure;altitude;pressure_sealevel;temperature;humidity
55347;BME280;41218;55.700;38.270;2022-09-30T00:04:29;99684.19;;;10.43;75.72
55347;BME280;41218;55.700;38.270;2022-09-30T00:09:30;99677.81;;;10.39;75.84
55347;BME280;41218;55.700;38.270;2022-09-30T00:14:30;99693.53;;;10.35;75.89
55347;BME280;41218;55.700;38.270;2022-09-30T00:19:31;99704.56;;;10.35;75.91
55347;BME280;41218;55.700;38.270;2022-09-30T00:24:31;99683.13;;;10.29;75.81
55347;BME280;41218;55.700;38.270;2022-09-30T00:29:32;99704.56;;;10.35;76.15
55347;BME280;41218;55.700;38.270;2022-09-30T00:34:32;99717.28;;;10.40;75.81
55347;BME280;41218;55.700;38.270;2022-09-30T00:39:33;99723.63;;;10.40;75.98
55347;BME280;41218;55.700;38.270;2022-09-30T00:44:52;99723.63;;;10.40;76.00
55347;BME280;41218;55.700;38.270;2022-09-30T00:49:54;99718.09;;;10.40;75.99
55347;BME280;41218;55.700;38.270;2022-09-30T00:54:58;99718.09;;;10.40;76.01
55347;BME280;41218;55.700;38.270;2022-09-30T01:00:01;99708.94;;;10.36;76.28
55347;BME280;41218;55.700;38.270;2022-09-30T01:05:02;99726.00;;;10.42;76.32
55347;BME280;41218;55.700;38.270;2022-09-30T01:10:04;99720.84;;;10.40;76.13
55347;BME280;41218;55.700;38.270;2022-09-30T01:15:05;99728.75;;;10.42;76.24
55347;BME280;41218;55.700;38.270;2022-09-30T01:42:27;99733.81;;;10.36;76.27
55347;BME280;41218;55.700;38.270;2022-09-30T01:47:45;99736.59;;;10.36;76.22
55347;BME280;41218;55.700;38.270;2022-09-30T01:53:07;99735.75;;;10.36;76.14
55347;BME280;41218;55.700;38.270;2022-09-30T02:03:24;99737.31;;;10.33;76.02
55347;BME280;41218;55.700;38.270;2022-09-30T02:13:53;99750.31;;;10.33;76.14
55347;BME280;41218;55.700;38.270;2022-09-30T02:19:05;99757.81;;;10.32;76.16
55347;BME280;41218;55.700;38.270;2022-09-30T02:24:13;99745.94;;;10.32;75.94
55347;BME280;41218;55.700;38.270;2022-09-30T02:29:17;99756.22;;;10.31;75.97
55347;BME280;41218;55.700;38.270;2022-09-30T02:34:27;99750.69;;;10.31;75.98
55347;BME280;41218;55.700;38.270;2022-09-30T02:44:34;99742.28;;;10.28;76.01
55347;BME280;41218;55.700;38.270;2022-09-30T02:49:59;99741.94;;;10.29;76.00
55347;BME280;41218;55.700;38.270;2022-09-30T02:55:07;99741.94;;;10.29;75.76
55347;BME280;41218;55.700;38.270;2022-09-30T03:00:12;99744.44;;;10.34;75.79
55347;BME280;41218;55.700;38.270;2022-09-30T03:05:13;99750.22;;;10.29;75.65
55347;BME280;41218;55.700;38.270;2022-09-30T03:10:15;99750.53;;;10.24;75.69
55347;BME280;41218;55.700;38.270;2022-09-30T03:15:29;99755.25;;;10.23;75.78
55347;BME280;41218;55.700;38.270;2022-09-30T03:31:11;99750.84;;;10.19;75.83
55347;BME280;41218;55.700;38.270;2022-09-30T03:41:23;99763.06;;;10.18;75.95
55347;BME280;41218;55.700;38.270;2022-09-30T03:46:32;99761.88;;;10.19;75.86
55347;BME280;41218;55.700;38.270;2022-09-30T03:51:36;99769.38;;;10.18;75.87
55347;BME280;41218;55.700;38.270;2022-09-30T03:56:38;99765.00;;;10.17;75.69
55347;BME280;41218;55.700;38.270;2022-09-30T04:01:42;99770.97;;;10.19;75.76
55347;BME280;41218;55.700;38.270;2022-09-30T04:06:43;99759.13;;;10.19;75.80
55347;BME280;41218;55.700;38.270;2022-09-30T04:11:43;99765.06;;;10.21;75.60
55347;BME280;41218;55.700;38.270;2022-09-30T04:16:44;99767.06;;;10.20;75.62
55347;BME280;41218;55.700;38.270;2022-09-30T04:21:44;99768.19;;;10.19;75.69
55347;BME280;41218;55.700;38.270;2022-09-30T04:26:45;99777.31;;;10.20;75.76
55347;BME280;41218;55.700;38.270;2022-09-30T04:31:45;99778.47;;;10.19;75.90
55347;BME280;41218;55.700;38.270;2022-09-30T04:36:46;99772.16;;;10.18;75.92
55347;BME280;41218;55.700;38.270;2022-09-30T04:41:47;99771.03;;;10.23;75.86
55347;BME280;41218;55.700;38.270;2022-09-30T04:46:47;99762.31;;;10.21;75.63
55347;BME280;41218;55.700;38.270;2022-09-30T04:51:47;99764.78;;;10.26;75.85
55347;BME280;41218;55.700;38.270;2022-09-30T04:56:48;99754.38;;;10.19;75.93
55347;BME280;41218;55.700;38.270;2022-09-30T05:01:49;99757.28;;;10.27;75.70
55347;BME280;41218;55.700;38.270;2022-09-30T05:06:49;99760.16;;;10.30;75.90
55347;BME280;41218;55.700;38.270;2022-09-30T05:11:50;99769.31;;;10.34;75.97
55347;BME280;41218;55.700;38.270;2022-09-30T05:16:51;99776.84;;;10.37;75.93
55347;BME280;41218;55.700;38.270;2022-09-30T05:21:51;99776.13;;;10.40;76.42
55347;BME280;41218;55.700;38.270;2022-09-30T05:26:52;99783.22;;;10.41;75.88
55347;BME280;41218;55.700;38.270;2022-09-30T05:31:52;99778.50;;;10.42;75.95
55347;BME280;41218;55.700;38.270;2022-09-30T05:36:54;99780.53;;;10.45;76.25
55347;BME280;41218;55.700;38.270;2022-09-30T05:41:57;99792.75;;;10.44;76.09
55347;BME280;41218;55.700;38.270;2022-09-30T05:46:57;99787.34;;;10.51;76.30
55347;BME280;41218;55.700;38.270;2022-09-30T05:51:58;99797.69;;;10.54;76.29
55347;BME280;41218;55.700;38.270;2022-09-30T05:56:59;99799.75;;;10.61;76.30
55347;BME280;41218;55.700;38.270;2022-09-30T06:02:00;99802.59;;;10.65;76.23
55347;BME280;41218;55.700;38.270;2022-09-30T06:07:00;99797.50;;;10.67;76.27
55347;BME280;41218;55.700;38.270;2022-09-30T06:12:01;99780.94;;;10.70;76.30
55347;BME280;41218;55.700;38.270;2022-09-30T06:17:02;99776.66;;;10.73;76.34
55347;BME280;41218;55.700;38.270;2022-09-30T06:22:04;99777.53;;;10.77;76.43
55347;BME280;41218;55.700;38.270;2022-09-30T06:27:04;99769.22;;;10.77;76.45
55347;BME280;41218;55.700;38.270;2022-09-30T06:32:05;99785.63;;;10.89;76.65
55347;BME280;41218;55.700;38.270;2022-09-30T06:37:06;99781.34;;;10.95;76.69
55347;BME280;41218;55.700;38.270;2022-09-30T06:42:07;99790.25;;;11.08;76.75
55347;BME280;41218;55.700;38.270;2022-09-30T06:47:07;99780.09;;;11.16;76.57
55347;BME280;41218;55.700;38.270;2022-09-30T06:52:09;99775.06;;;11.25;76.86
55347;BME280;41218;55.700;38.270;2022-09-30T06:57:12;99780.28;;;11.30;76.76
55347;BME280;41218;55.700;38.270;2022-09-30T07:02:13;99778.06;;;11.43;76.76
55347;BME280;41218;55.700;38.270;2022-09-30T07:07:13;99768.25;;;11.46;76.87
55347;BME280;41218;55.700;38.270;2022-09-30T07:12:14;99774.34;;;11.58;76.75
55347;BME280;41218;55.700;38.270;2022-09-30T07:17:14;99769.69;;;11.66;76.80
55347;BME280;41218;55.700;38.270;2022-09-30T07:22:15;99766.28;;;11.80;76.72
55347;BME280;41218;55.700;38.270;2022-09-30T07:27:31;99763.94;;;11.82;76.63
55347;BME280;41218;55.700;38.270;2022-09-30T07:32:32;99777.25;;;12.03;76.66
55347;BME280;41218;55.700;38.270;2022-09-30T07:37:32;99777.78;;;12.16;76.59
55347;BME280;41218;55.700;38.270;2022-09-30T07:42:39;99784.66;;;12.29;76.42
55347;BME280;41218;55.700;38.270;2022-09-30T07:47:44;99788.72;;;12.39;76.14
55347;BME280;41218;55.700;38.270;2022-09-30T07:52:45;99789.19;;;12.48;76.24
55347;BME280;41218;55.700;38.270;2022-09-30T07:57:45;99795.59;;;12.56;76.10
55347;BME280;41218;55.700;38.270;2022-09-30T08:02:46;99793.69;;;12.67;76.36
55347;BME280;41218;55.700;38.270;2022-09-30T08:07:46;99799.78;;;12.80;76.12
55347;BME280;41218;55.700;38.270;2022-09-30T08:12:47;99796.28;;;12.90;76.08
55347;BME280;41218;55.700;38.270;2022-09-30T08:17:48;99795.56;;;13.00;75.75
55347;BME280;41218;55.700;38.270;2022-09-30T08:22:53;99798.78;;;13.10;75.99
55347;BME280;41218;55.700;38.270;2022-09-30T08:27:53;99786.19;;;13.16;75.80
55347;BME280;41218;55.700;38.270;2022-09-30T08:32:54;99790.59;;;13.28;75.75
55347;BME280;41218;55.700;38.270;2022-09-30T08:37:54;99793.06;;;13.36;75.61
55347;BME280;41218;55.700;38.270;2022-09-30T08:53:24;99785.66;;;13.58;75.18
55347;BME280;41218;55.700;38.270;2022-09-30T08:58:38;99790.06;;;13.67;75.12
55347;BME280;41218;55.700;38.270;2022-09-30T09:03:40;99796.03;;;13.76;75.15
55347;BME280;41218;55.700;38.270;2022-09-30T09:09:27;99784.94;;;13.87;75.00
55347;BME280;41218;55.700;38.270;2022-09-30T09:19:46;99777.88;;;14.03;74.84
55347;BME280;41218;55.700;38.270;2022-09-30T09:24:51;99769.16;;;14.12;74.80
55347;BME280;41218;55.700;38.270;2022-09-30T09:35:12;99760.03;;;14.22;74.34
55347;BME280;41218;55.700;38.270;2022-09-30T09:46:43;99766.03;;;14.28;74.17
55347;BME280;41218;55.700;38.270;2022-09-30T09:51:31;99765.63;;;14.33;74.36
55347;BME280;41218;55.700;38.270;2022-09-30T09:56:33;99768.81;;;14.39;74.29
55347;BME280;41218;55.700;38.270;2022-09-30T10:01:48;99761.25;;;14.43;74.05
55347;BME280;41218;55.700;38.270;2022-09-30T10:06:50;99761.28;;;14.54;74.00
55347;BME280;41218;55.700;38.270;2022-09-30T10:17:38;99759.72;;;14.71;73.97
55347;BME280;41218;55.700;38.270;2022-09-30T10:22:39;99763.69;;;14.73;73.87
55347;BME280;41218;55.700;38.270;2022-09-30T10:28:23;99772.84;;;14.85;73.73
55347;BME280;41218;55.700;38.270;2022-09-30T10:33:21;99776.00;;;14.76;73.54
55347;BME280;41218;55.700;38.270;2022-09-30T10:38:24;99764.88;;;14.79;73.37
55347;BME280;41218;55.700;38.270;2022-09-30T10:43:46;99762.88;;;14.83;73.97
55347;BME280;41218;55.700;38.270;2022-09-30T10:48:50;99758.50;;;14.93;73.84
55347;BME280;41218;55.700;38.270;2022-09-30T10:53:53;99775.22;;;15.00;73.67
55347;BME280;41218;55.700;38.270;2022-09-30T10:58:55;99772.00;;;15.06;73.66
55347;BME280;41218;55.700;38.270;2022-09-30T11:09:28;99773.56;;;15.25;73.61
55347;BME280;41218;55.700;38.270;2022-09-30T11:14:41;99763.22;;;15.29;73.53
55347;BME280;41218;55.700;38.270;2022-09-30T11:19:55;99767.97;;;15.39;73.58
55347;BME280;41218;55.700;38.270;2022-09-30T11:24:57;99754.00;;;15.50;73.51
55347;BME280;41218;55.700;38.270;2022-09-30T11:51:32;99761.47;;;15.71;72.94
55347;BME280;41218;55.700;38.270;2022-09-30T11:56:49;99759.09;;;15.76;73.35
55347;BME280;41218;55.700;38.270;2022-09-30T12:01:57;99763.47;;;15.81;73.40
55347;BME280;41218;55.700;38.270;2022-09-30T12:07:18;99768.22;;;15.88;73.12
55347;BME280;41218;55.700;38.270;2022-09-30T12:12:20;99770.16;;;15.98;73.00
55347;BME280;41218;55.700;38.270;2022-09-30T12:17:31;99774.13;;;16.04;72.80
55347;BME280;41218;55.700;38.270;2022-09-30T12:22:40;99774.84;;;16.12;72.51
55347;BME280;41218;55.700;38.270;2022-09-30T12:44:46;99781.25;;;16.09;71.92
55347;BME280;41218;55.700;38.270;2022-09-30T12:49:54;99780.88;;;16.03;72.00
55347;BME280;41218;55.700;38.270;2022-09-30T12:54:59;99771.75;;;15.99;71.99
55347;BME280;41218;55.700;38.270;2022-09-30T13:00:12;99776.53;;;15.98;71.95
55347;BME280;41218;55.700;38.270;2022-09-30T13:05:37;99784.88;;;15.98;71.67
55347;BME280;41218;55.700;38.270;2022-09-30T13:10:50;99794.44;;;15.97;71.91
55347;BME280;41218;55.700;38.270;2022-09-30T13:15:57;99797.66;;;15.96;71.83
55347;BME280;41218;55.700;38.270;2022-09-30T13:31:22;99793.69;;;15.90;71.98
55347;BME280;41218;55.700;38.270;2022-09-30T13:37:25;99799.66;;;15.88;71.94
55347;BME280;41218;55.700;38.270;2022-09-30T13:42:13;99806.03;;;15.85;71.90
55347;BME280;41218;55.700;38.270;2022-09-30T13:52:38;99817.22;;;15.81;71.88
55347;BME280;41218;55.700;38.270;2022-09-30T14:24:09;99837.94;;;15.70;72.14
55347;BME280;41218;55.700;38.270;2022-09-30T14:29:19;99842.72;;;15.66;72.21
55347;BME280;41218;55.700;38.270;2022-09-30T14:34:23;99837.94;;;15.62;72.26
55347;BME280;41218;55.700;38.270;2022-09-30T14:39:27;99845.13;;;15.60;72.52
55347;BME280;41218;55.700;38.270;2022-09-30T14:44:32;99847.13;;;15.56;72.32
55347;BME280;41218;55.700;38.270;2022-09-30T14:49:35;99845.53;;;15.51;72.48
55347;BME280;41218;55.700;38.270;2022-09-30T14:54:36;99847.50;;;15.61;72.42
55347;BME280;41218;55.700;38.270;2022-09-30T14:59:46;99856.69;;;15.51;72.33
55347;BME280;41218;55.700;38.270;2022-09-30T15:04:51;99851.13;;;15.44;72.30
55347;BME280;41218;55.700;38.270;2022-09-30T15:09:53;99864.25;;;15.43;72.28
55347;BME280;41218;55.700;38.270;2022-09-30T15:14:56;99857.50;;;15.41;72.56
55347;BME280;41218;55.700;38.270;2022-09-30T15:19:57;99869.81;;;15.40;72.29
55347;BME280;41218;55.700;38.270;2022-09-30T15:24:58;99847.97;;;15.28;72.59
55347;BME280;41218;55.700;38.270;2022-09-30T15:30:02;99861.06;;;15.34;72.64
55347;BME280;41218;55.700;38.270;2022-09-30T15:35:05;99861.06;;;15.31;72.60
55347;BME280;41218;55.700;38.270;2022-09-30T15:40:14;99873.41;;;15.30;72.58
55347;BME280;41218;55.700;38.270;2022-09-30T15:45:41;99870.22;;;15.24;72.79
55347;BME280;41218;55.700;38.270;2022-09-30T15:50:47;99883.75;;;15.26;72.96
55347;BME280;41218;55.700;38.270;2022-09-30T15:55:50;99874.22;;;15.23;72.64
55347;BME280;41218;55.700;38.270;2022-09-30T16:06:13;99871.44;;;15.16;73.02
55347;BME280;41218;55.700;38.270;2022-09-30T16:11:28;99867.06;;;15.08;73.21
55347;BME280;41218;55.700;38.270;2022-09-30T16:16:31;99878.59;;;15.10;73.06
55347;BME280;41218;55.700;38.270;2022-09-30T16:21:43;99880.56;;;15.06;73.11
55347;BME280;41218;55.700;38.270;2022-09-30T16:26:44;99886.16;;;15.06;73.09
55347;BME280;41218;55.700;38.270;2022-09-30T16:31:46;99881.78;;;15.01;73.18
55347;BME280;41218;55.700;38.270;2022-09-30T16:36:48;99886.53;;;15.04;73.27
55347;BME280;41218;55.700;38.270;2022-09-30T16:41:49;99893.69;;;15.01;73.38
55347;BME280;41218;55.700;38.270;2022-09-30T16:46:50;99898.88;;;14.99;73.48
55347;BME280;41218;55.700;38.270;2022-09-30T16:51:51;99901.25;;;15.01;73.52
55347;BME280;41218;55.700;38.270;2022-09-30T16:56:51;99904.03;;;15.01;73.22
55347;BME280;41218;55.700;38.270;2022-09-30T17:01:52;99904.44;;;14.92;73.49
55347;BME280;41218;55.700;38.270;2022-09-30T17:06:55;99895.28;;;14.88;73.81
55347;BME280;41218;55.700;38.270;2022-09-30T17:11:56;99910.81;;;14.96;73.67
55347;BME280;41218;55.700;38.270;2022-09-30T17:17:00;99915.97;;;14.94;73.85
55347;BME280;41218;55.700;38.270;2022-09-30T17:22:02;99912.38;;;14.90;73.75
55347;BME280;41218;55.700;38.270;2022-09-30T17:27:02;99917.53;;;14.92;74.12
55347;BME280;41218;55.700;38.270;2022-09-30T17:32:03;99911.97;;;14.92;73.84
55347;BME280;41218;55.700;38.270;2022-09-30T17:37:03;99909.19;;;14.92;74.06
55347;BME280;41218;55.700;38.270;2022-09-30T17:42:05;99907.63;;;14.91;73.92
55347;BME280;41218;55.700;38.270;2022-09-30T17:47:24;99895.28;;;14.88;74.06
55347;BME280;41218;55.700;38.270;2022-09-30T17:52:25;99894.88;;;14.86;74.05
55347;BME280;41218;55.700;38.270;2022-09-30T17:57:26;99902.44;;;14.89;74.29
55347;BME280;41218;55.700;38.270;2022-09-30T18:02:27;99905.25;;;14.96;74.12
55347;BME280;41218;55.700;38.270;2022-09-30T18:07:28;99900.84;;;14.88;73.95
55347;BME280;41218;55.700;38.270;2022-09-30T18:12:29;99902.41;;;14.86;74.36
55347;BME280;41218;55.700;38.270;2022-09-30T18:17:29;99902.81;;;14.84;74.30
55347;BME280;41218;55.700;38.270;2022-09-30T18:22:30;99902.41;;;14.86;74.01
55347;BME280;41218;55.700;38.270;2022-09-30T18:27:30;99903.63;;;14.85;74.43
55347;BME280;41218;55.700;38.270;2022-09-30T18:32:33;99902.00;;;14.80;74.28
55347;BME280;41218;55.700;38.270;2022-09-30T18:37:33;99904.00;;;14.83;74.26
55347;BME280;41218;55.700;38.270;2022-09-30T18:42:34;99903.22;;;14.79;74.33
55347;BME280;41218;55.700;38.270;2022-09-30T18:47:43;99894.06;;;14.71;74.61
55347;BME280;41218;55.700;38.270;2022-09-30T18:52:44;99912.34;;;14.76;74.33
55347;BME280;41218;55.700;38.270;2022-09-30T18:57:44;99921.88;;;14.75;74.28
55347;BME280;41218;55.700;38.270;2022-09-30T19:02:51;99923.47;;;14.72;74.47
55347;BME280;41218;55.700;38.270;2022-09-30T19:07:52;99927.81;;;14.70;74.70
55347;BME280;41218;55.700;38.270;2022-09-30T19:12:53;99911.47;;;14.54;74.58
55347;BME280;41218;55.700;38.270;2022-09-30T19:17:53;99943.34;;;14.71;74.23
55347;BME280;41218;55.700;38.270;2022-09-30T19:22:54;99940.56;;;14.78;74.60
55347;BME280;41218;55.700;38.270;2022-09-30T19:27:55;99946.13;;;14.71;74.54
55347;BME280;41218;55.700;38.270;2022-09-30T19:32:56;99943.75;;;14.76;74.54
55347;BME280;41218;55.700;38.270;2022-09-30T19:38:00;99948.88;;;14.67;74.35
55347;BME280;41218;55.700;38.270;2022-09-30T19:43:00;99944.53;;;14.66;74.54
55347;BME280;41218;55.700;38.270;2022-09-30T19:48:01;99947.69;;;14.65;74.64
55347;BME280;41218;55.700;38.270;2022-09-30T19:53:02;99952.47;;;14.64;75.01
55347;BME280;41218;55.700;38.270;2022-09-30T19:58:03;99954.03;;;14.61;74.85
55347;BME280;41218;55.700;38.270;2022-09-30T20:03:03;99954.03;;;14.61;74.82
55347;BME280;41218;55.700;38.270;2022-09-30T20:08:04;99955.63;;;14.62;75.02
55347;BME280;41218;55.700;38.270;2022-09-30T20:13:04;99948.47;;;14.61;74.82
55347;BME280;41218;55.700;38.270;2022-09-30T20:18:05;99958.41;;;14.62;74.74
55347;BME280;41218;55.700;38.270;2022-09-30T20:23:05;99952.84;;;14.62;74.81
55347;BME280;41218;55.700;38.270;2022-09-30T20:28:06;99960.41;;;14.58;75.09
55347;BME280;41218;55.700;38.270;2022-09-30T20:33:07;99962.38;;;14.61;74.90
55347;BME280;41218;55.700;38.270;2022-09-30T20:38:13;99974.72;;;14.60;75.07
55347;BME280;41218;55.700;38.270;2022-09-30T20:43:14;99963.91;;;14.55;74.88
55347;BME280;41218;55.700;38.270;2022-09-30T20:48:15;99970.72;;;14.58;74.92
55347;BME280;41218;55.700;38.270;2022-09-30T20:53:15;99960.34;;;14.55;74.93
55347;BME280;41218;55.700;38.270;2022-09-30T20:58:17;99965.56;;;14.56;75.11
55347;BME280;41218;55.700;38.270;2022-09-30T21:03:17;99975.47;;;14.54;74.94
55347;BME280;41218;55.700;38.270;2022-09-30T21:08:18;99973.06;;;14.52;75.07
55347;BME280;41218;55.700;38.270;2022-09-30T21:13:18;99958.78;;;14.54;74.92
55347;BME280;41218;55.700;38.270;2022-09-30T21:18:19;99961.53;;;14.50;74.88
55347;BME280;41218;55.700;38.270;2022-09-30T21:23:19;99969.50;;;14.52;74.93
55347;BME280;41218;55.700;38.270;2022-09-30T21:28:20;99977.00;;;14.51;74.99
55347;BME280;41218;55.700;38.270;2022-09-30T21:33:21;99973.50;;;14.58;74.94
55347;BME280;41218;55.700;38.270;2022-09-30T21:38:22;99967.84;;;14.47;74.80
55347;BME280;41218;55.700;38.270;2022-09-30T21:43:24;99961.88;;;14.41;75.01
55347;BME280;41218;55.700;38.270;2022-09-30T21:48:25;99964.69;;;14.45;75.04
55347;BME280;41218;55.700;38.270;2022-09-30T21:53:26;99960.72;;;14.53;75.14
55347;BME280;41218;55.700;38.270;2022-09-30T21:58:28;99958.72;;;14.47;74.64
55347;BME280;41218;55.700;38.270;2022-09-30T22:03:32;99958.69;;;14.43;74.62
55347;BME280;41218;55.700;38.270;2022-09-30T22:08:38;99953.53;;;14.41;74.82
55347;BME280;41218;55.700;38.270;2022-09-30T22:13:43;99957.09;;;14.38;75.09
55347;BME280;41218;55.700;38.270;2022-09-30T22:18:44;99956.69;;;14.36;74.95
55347;BME280;41218;55.700;38.270;2022-09-30T22:23:46;99962.28;;;14.40;74.98
55347;BME280;41218;55.700;38.270;2022-09-30T22:28:52;99957.91;;;14.39;75.34
55347;BME280;41218;55.700;38.270;2022-09-30T22:33:58;99961.06;;;14.37;74.99
55347;BME280;41218;55.700;38.270;2022-09-30T22:39:17;99950.72;;;14.34;75.08
55347;BME280;41218;55.700;38.270;2022-09-30T22:44:18;99952.72;;;14.37;74.83
55347;BME280;41218;55.700;38.270;2022-09-30T22:49:19;99955.50;;;14.37;75.16
55347;BME280;41218;55.700;38.270;2022-09-30T22:54:20;99949.19;;;14.44;74.93
55347;BME280;41218;55.700;38.270;2022-09-30T22:59:22;99936.84;;;14.38;74.74
55347;BME280;41218;55.700;38.270;2022-09-30T23:04:25;99941.97;;;14.32;75.15
55347;BME280;41218;55.700;38.270;2022-09-30T23:09:25;99944.75;;;14.32;74.98
55347;BME280;41218;55.700;38.270;2022-09-30T23:14:26;99941.56;;;14.30;75.06
55347;BME280;41218;55.700;38.270;2022-09-30T23:19:26;99949.13;;;14.33;75.10
55347;BME280;41218;55.700;38.270;2022-09-30T23:24:27;99954.28;;;14.31;75.01
55347;BME280;41218;55.700;38.270;2022-09-30T23:29:30;99952.28;;;14.28;75.08
55347;BME280;41218;55.700;38.270;2022-09-30T23:34:31;99945.94;;;14.28;75.04
55347;BME280;41218;55.700;38.270;2022-09-30T23:39:31;99943.16;;;14.31;74.84
55347;BME280;41218;55.700;38.270;2022-09-30T23:44:32;99936.00;;;14.27;74.85
55347;BME280;41218;55.700;38.270;2022-09-30T23:49:32;99943.56;;;14.30;75.04
55347;BME280;41218;55.700;38.270;2022-09-30T23:54:35;99946.72;;;14.28;74.85
55347;BME280;41218;55.700;38.270;2022-09-30T23:59:35;99945.94;;;14.28;74.78
